Time;durP1;ratioP1;P1;durP2;ratioP2;P2;SDS_P1;SDS_P2;PMS_P1;PMS_P2;Temp;Humidity;BMP_temperature;BMP_pressure;BME280_temperature;BME280_humidity;BME280_pressure;Samples;Min_cycle;Max_cycle;Signal;HPM_P1;HPM_P2
2021/09/20 00:01:29;;;;;;;7.88;6.45;;;;;;;;;;5008651;28;20426;-50
2021/09/20 00:03:56;;;;;;;8.07;6.60;;;;;;;;;;5011772;28;20092;-43
2021/09/20 00:06:23;;;;;;;7.63;6.38;;;;;;;;;;5011958;28;20048;-43
2021/09/20 00:08:50;;;;;;;8.45;6.75;;;;;;;;;;5008722;28;20128;-47
2021/09/20 00:11:17;;;;;;;8.82;6.88;;;;;;;;;;5012019;28;20049;-43
2021/09/20 00:13:44;;;;;;;7.65;6.45;;;;;;;;;;5010283;28;20127;-48
2021/09/20 00:16:11;;;;;;;7.53;6.40;;;;;;;;;;5010598;28;20041;-43
2021/09/20 00:18:38;;;;;;;7.65;5.90;;;;;;;;;;5011599;28;20523;-42
2021/09/20 00:21:04;;;;;;;6.88;5.93;;;;;;;;;;5012111;28;20164;-44
2021/09/20 00:23:31;;;;;;;8.30;6.25;;;;;;;;;;5011241;28;20125;-42
2021/09/20 00:25:59;;;;;;;7.95;6.75;;;;;;;;;;5010083;28;20579;-44
2021/09/20 00:28:26;;;;;;;7.70;6.38;;;;;;;;;;5008665;28;20038;-42
2021/09/20 00:30:52;;;;;;;9.18;6.97;;;;;;;;;;5008529;28;20121;-47
2021/09/20 00:33:19;;;;;;;9.55;6.68;;;;;;;;;;5011295;28;20045;-42
2021/09/20 00:35:46;;;;;;;8.27;6.32;;;;;;;;;;5010594;28;20109;-42
2021/09/20 00:38:13;;;;;;;7.22;6.07;;;;;;;;;;5010703;28;20414;-44
2021/09/20 00:40:40;;;;;;;9.57;6.65;;;;;;;;;;5010067;28;20537;-43
2021/09/20 00:43:07;;;;;;;11.00;7.38;;;;;;;;;;5011330;28;20074;-47
2021/09/20 00:45:33;;;;;;;9.00;7.15;;;;;;;;;;5005111;28;20125;-45
2021/09/20 00:48:00;;;;;;;9.27;7.10;;;;;;;;;;5004129;28;20077;-45
2021/09/20 00:50:28;;;;;;;9.05;6.97;;;;;;;;;;5011225;28;20065;-44
2021/09/20 00:52:55;;;;;;;9.20;6.50;;;;;;;;;;5011440;28;20452;-47
2021/09/20 00:55:22;;;;;;;11.30;7.30;;;;;;;;;;5007144;28;20126;-45
2021/09/20 00:57:49;;;;;;;8.07;6.38;;;;;;;;;;5011418;28;20046;-42
2021/09/20 01:00:16;;;;;;;8.55;6.45;;;;;;;;;;5006126;28;20045;-42
2021/09/20 01:02:43;;;;;;;9.27;7.53;;;;;;;;;;5015628;28;20495;-42
2021/09/20 01:05:11;;;;;;;8.88;7.00;;;;;;;;;;5015196;28;20073;-42
2021/09/20 01:07:38;;;;;;;9.13;6.95;;;;;;;;;;5014255;28;20283;-43
2021/09/20 01:10:07;;;;;;;8.93;7.38;;;;;;;;;;5014278;28;20472;-45
2021/09/20 01:12:34;;;;;;;10.68;8.25;;;;;;;;;;5005954;28;20491;-46
2021/09/20 01:15:02;;;;;;;9.35;7.40;;;;;;;;;;5016093;28;20092;-44
2021/09/20 01:17:29;;;;;;;9.00;6.93;;;;;;;;;;5006825;28;20058;-43
2021/09/20 01:19:56;;;;;;;10.55;7.40;;;;;;;;;;5014346;28;20073;-44
2021/09/20 01:22:23;;;;;;;9.52;7.60;;;;;;;;;;5002567;28;20411;-45
2021/09/20 01:24:50;;;;;;;10.27;7.50;;;;;;;;;;5012663;28;20046;-42
2021/09/20 01:27:18;;;;;;;10.90;7.68;;;;;;;;;;5014443;28;20511;-46
2021/09/20 01:29:45;;;;;;;9.57;7.45;;;;;;;;;;5010900;28;20042;-44
2021/09/20 01:32:12;;;;;;;9.02;6.88;;;;;;;;;;5015101;28;20133;-42
2021/09/20 01:34:39;;;;;;;9.85;7.15;;;;;;;;;;5049190;22;20498;-46
2021/09/20 01:37:06;;;;;;;12.05;8.82;;;;;;;;;;5034043;28;20044;-43
2021/09/20 01:39:34;;;;;;;11.05;8.55;;;;;;;;;;5032435;28;20342;-45
2021/09/20 01:42:00;;;;;;;11.25;8.38;;;;;;;;;;5034757;28;20154;-43
2021/09/20 01:44:27;;;;;;;10.82;8.00;;;;;;;;;;5025724;28;20121;-48
2021/09/20 01:46:56;;;;;;;9.55;7.13;;;;;;;;;;5024153;28;20045;-46
2021/09/20 01:49:23;;;;;;;9.93;8.25;;;;;;;;;;5023067;28;20115;-48
2021/09/20 01:51:50;;;;;;;10.77;8.43;;;;;;;;;;5026435;28;20124;-44
2021/09/20 01:54:18;;;;;;;10.40;8.10;;;;;;;;;;5013798;28;20092;-47
2021/09/20 01:56:44;;;;;;;10.77;7.93;;;;;;;;;;5020805;28;20040;-43
2021/09/20 01:59:11;;;;;;;10.38;8.43;;;;;;;;;;5013652;28;20101;-45
2021/09/20 02:01:38;;;;;;;11.02;8.45;;;;;;;;;;5022970;28;20037;-46
2021/09/20 02:04:05;;;;;;;10.13;8.40;;;;;;;;;;5022111;28;20406;-47
2021/09/20 02:06:32;;;;;;;10.10;7.70;;;;;;;;;;5015549;28;20100;-46
2021/09/20 02:09:00;;;;;;;11.13;8.32;;;;;;;;;;5026370;28;20037;-44
2021/09/20 02:11:28;;;;;;;9.93;8.05;;;;;;;;;;5026628;28;20042;-45
2021/09/20 02:13:55;;;;;;;10.70;8.55;;;;;;;;;;5013931;28;20116;-49
2021/09/20 02:16:22;;;;;;;12.05;8.85;;;;;;;;;;5009795;28;20120;-49
2021/09/20 02:18:49;;;;;;;10.55;8.90;;;;;;;;;;5024347;28;20073;-47
2021/09/20 02:21:15;;;;;;;10.48;8.38;;;;;;;;;;5023639;28;20045;-48
2021/09/20 02:23:42;;;;;;;11.48;8.80;;;;;;;;;;5025200;28;20052;-43
2021/09/20 02:26:09;;;;;;;9.88;7.72;;;;;;;;;;5013559;28;20509;-45
2021/09/20 02:28:37;;;;;;;10.45;8.27;;;;;;;;;;5011537;28;20038;-46
2021/09/20 02:31:05;;;;;;;11.55;8.82;;;;;;;;;;5024317;28;20437;-43
2021/09/20 02:33:33;;;;;;;13.02;9.25;;;;;;;;;;5024465;28;20151;-44
2021/09/20 02:36:00;;;;;;;10.90;8.52;;;;;;;;;;5023711;28;20067;-46
2021/09/20 02:38:27;;;;;;;11.65;8.88;;;;;;;;;;5031313;28;20422;-43
2021/09/20 02:40:54;;;;;;;11.25;8.13;;;;;;;;;;5032930;28;20498;-48
2021/09/20 02:43:21;;;;;;;13.02;8.73;;;;;;;;;;5012202;28;20048;-47
2021/09/20 02:45:48;;;;;;;11.60;9.02;;;;;;;;;;4996147;28;20049;-47
2021/09/20 02:48:15;;;;;;;11.32;9.15;;;;;;;;;;5012017;28;20046;-44
2021/09/20 02:50:42;;;;;;;10.57;8.93;;;;;;;;;;5022662;28;20129;-47
2021/09/20 02:53:09;;;;;;;12.20;9.32;;;;;;;;;;5020494;28;20125;-47
2021/09/20 02:55:36;;;;;;;12.38;9.30;;;;;;;;;;5012878;28;20468;-48
2021/09/20 02:58:03;;;;;;;11.40;9.02;;;;;;;;;;5021329;28;20495;-48
2021/09/20 03:00:29;;;;;;;11.90;8.32;;;;;;;;;;5017013;28;20052;-49
2021/09/20 03:02:56;;;;;;;12.73;8.88;;;;;;;;;;5016767;28;20037;-46
2021/09/20 03:05:23;;;;;;;12.27;9.63;;;;;;;;;;5017351;28;20038;-47
2021/09/20 03:07:50;;;;;;;11.55;9.30;;;;;;;;;;4997380;28;20208;-49
2021/09/20 03:10:17;;;;;;;12.00;9.35;;;;;;;;;;5019626;28;20034;-47
2021/09/20 03:12:44;;;;;;;13.00;9.52;;;;;;;;;;5025132;28;20129;-49
2021/09/20 03:15:11;;;;;;;11.75;9.18;;;;;;;;;;5014756;28;20553;-44
2021/09/20 03:17:37;;;;;;;14.68;9.93;;;;;;;;;;5020467;28;20100;-47
2021/09/20 03:20:06;;;;;;;12.82;10.32;;;;;;;;;;5015653;28;20064;-45
2021/09/20 03:22:32;;;;;;;11.73;9.15;;;;;;;;;;5013018;28;20046;-46
2021/09/20 03:24:59;;;;;;;12.50;9.85;;;;;;;;;;5017873;28;20491;-46
2021/09/20 03:27:26;;;;;;;13.25;10.43;;;;;;;;;;5025124;28;20681;-46
2021/09/20 03:29:53;;;;;;;12.57;10.07;;;;;;;;;;5019470;28;20051;-46
2021/09/20 03:32:19;;;;;;;11.77;9.27;;;;;;;;;;5021569;28;20487;-47
2021/09/20 03:34:46;;;;;;;12.20;9.43;;;;;;;;;;5027006;28;20136;-47
2021/09/20 03:37:13;;;;;;;11.93;9.30;;;;;;;;;;5011996;28;20054;-45
2021/09/20 03:39:40;;;;;;;11.32;8.98;;;;;;;;;;5015266;28;20124;-46
2021/09/20 03:42:07;;;;;;;12.73;9.38;;;;;;;;;;5013576;28;20034;-45
2021/09/20 03:44:33;;;;;;;12.40;8.98;;;;;;;;;;5018222;28;20047;-46
2021/09/20 03:47:00;;;;;;;13.50;9.77;;;;;;;;;;5004016;28;20046;-47
2021/09/20 03:49:27;;;;;;;12.23;9.15;;;;;;;;;;5020636;28;20075;-46
2021/09/20 03:51:54;;;;;;;13.93;9.13;;;;;;;;;;5012129;28;20495;-46
2021/09/20 03:54:21;;;;;;;11.65;8.85;;;;;;;;;;5023432;28;20045;-46
2021/09/20 03:56:47;;;;;;;12.32;9.32;;;;;;;;;;5012870;28;20085;-45
2021/09/20 03:59:15;;;;;;;11.80;9.70;;;;;;;;;;5011223;28;20064;-46
2021/09/20 04:01:42;;;;;;;11.90;9.25;;;;;;;;;;5024705;28;20129;-47
2021/09/20 04:04:09;;;;;;;15.43;9.43;;;;;;;;;;5020301;28;20065;-46
2021/09/20 04:06:35;;;;;;;12.63;9.40;;;;;;;;;;5027317;28;20498;-47
2021/09/20 04:09:02;;;;;;;12.65;10.15;;;;;;;;;;5011137;28;20133;-45
2021/09/20 04:11:30;;;;;;;13.27;10.55;;;;;;;;;;5042995;28;20422;-47
2021/09/20 04:13:57;;;;;;;13.40;9.70;;;;;;;;;;5012512;28;20084;-47
2021/09/20 04:16:24;;;;;;;13.18;9.65;;;;;;;;;;5015381;28;20043;-47
2021/09/20 04:18:51;;;;;;;11.63;8.82;;;;;;;;;;5025361;28;20037;-51
2021/09/20 04:21:18;;;;;;;13.73;9.98;;;;;;;;;;5012946;28;20100;-50
2021/09/20 04:23:45;;;;;;;14.25;9.93;;;;;;;;;;5012518;28;20049;-50
2021/09/20 04:26:14;;;;;;;13.63;9.48;;;;;;;;;;5026009;28;20141;-47
2021/09/20 04:28:42;;;;;;;11.32;9.10;;;;;;;;;;5019581;28;20573;-47
2021/09/20 04:31:09;;;;;;;13.93;8.98;;;;;;;;;;5012247;28;20038;-47
2021/09/20 04:33:35;;;;;;;11.40;9.13;;;;;;;;;;5030381;28;20552;-50
2021/09/20 04:36:02;;;;;;;15.48;10.77;;;;;;;;;;5017380;28;20123;-47
2021/09/20 04:38:29;;;;;;;13.00;9.82;;;;;;;;;;5011098;28;20065;-48
2021/09/20 04:40:56;;;;;;;12.60;9.63;;;;;;;;;;5018373;28;20049;-47
2021/09/20 04:43:23;;;;;;;11.55;9.27;;;;;;;;;;5011956;28;20042;-44
2021/09/20 04:45:51;;;;;;;12.25;9.77;;;;;;;;;;5016462;28;20081;-44
2021/09/20 04:48:18;;;;;;;14.43;10.57;;;;;;;;;;5025852;28;20414;-44
2021/09/20 04:50:45;;;;;;;13.15;9.70;;;;;;;;;;5009987;28;20042;-46
2021/09/20 04:53:13;;;;;;;13.75;9.98;;;;;;;;;;5023469;28;20041;-43
2021/09/20 04:55:40;;;;;;;15.93;10.93;;;;;;;;;;5018930;28;20133;-44
2021/09/20 04:58:08;;;;;;;13.60;10.65;;;;;;;;;;5011758;28;20061;-47
2021/09/20 05:00:35;;;;;;;11.93;9.25;;;;;;;;;;5013256;28;20415;-47
2021/09/20 05:03:02;;;;;;;12.20;9.35;;;;;;;;;;5022449;28;20053;-46
2021/09/20 05:05:30;;;;;;;14.02;10.15;;;;;;;;;;5010635;28;20526;-48
2021/09/20 05:07:57;;;;;;;14.23;10.10;;;;;;;;;;5015705;28;20069;-45
2021/09/20 05:10:24;;;;;;;13.25;9.82;;;;;;;;;;5011696;28;20182;-44
2021/09/20 05:12:51;;;;;;;15.77;11.70;;;;;;;;;;5007579;28;20030;-47
2021/09/20 05:15:18;;;;;;;14.52;9.98;;;;;;;;;;5006997;28;20080;-47
2021/09/20 05:17:45;;;;;;;14.55;10.65;;;;;;;;;;5016634;28;20041;-49
2021/09/20 05:20:14;;;;;;;14.70;10.23;;;;;;;;;;5006097;28;20096;-44
2021/09/20 05:22:41;;;;;;;17.02;10.45;;;;;;;;;;5003644;28;20042;-47
2021/09/20 05:25:09;;;;;;;12.23;9.45;;;;;;;;;;5016492;28;20076;-47
2021/09/20 05:27:36;;;;;;;14.95;9.80;;;;;;;;;;5021170;28;20042;-45
2021/09/20 05:30:05;;;;;;;14.50;10.40;;;;;;;;;;5015079;28;20453;-44
2021/09/20 05:32:32;;;;;;;15.93;10.20;;;;;;;;;;5025132;28;20065;-43
2021/09/20 05:34:59;;;;;;;16.90;10.15;;;;;;;;;;5012788;28;20054;-45
2021/09/20 05:37:26;;;;;;;12.85;9.95;;;;;;;;;;5012790;28;20033;-45
2021/09/20 05:39:52;;;;;;;12.63;9.75;;;;;;;;;;5001932;28;20084;-43
2021/09/20 05:42:19;;;;;;;13.52;9.98;;;;;;;;;;5011339;28;20074;-44
2021/09/20 05:44:47;;;;;;;13.98;10.57;;;;;;;;;;5014393;28;20046;-45
2021/09/20 05:47:14;;;;;;;14.15;10.05;;;;;;;;;;5005534;28;20128;-45
2021/09/20 05:49:40;;;;;;;16.10;10.27;;;;;;;;;;5014798;28;20462;-47
2021/09/20 05:52:07;;;;;;;16.13;10.48;;;;;;;;;;5019527;28;20116;-44
2021/09/20 05:54:34;;;;;;;14.98;10.20;;;;;;;;;;5025036;28;20045;-42
2021/09/20 05:57:01;;;;;;;13.52;10.15;;;;;;;;;;5020706;28;20041;-43
2021/09/20 05:59:27;;;;;;;15.65;11.18;;;;;;;;;;5012119;28;20034;-43
2021/09/20 06:01:54;;;;;;;15.35;10.75;;;;;;;;;;5030462;28;20118;-47
2021/09/20 06:04:23;;;;;;;15.88;10.63;;;;;;;;;;5034483;28;20041;-44
2021/09/20 06:06:50;;;;;;;15.30;10.32;;;;;;;;;;5015518;28;20443;-45
2021/09/20 06:09:17;;;;;;;13.63;10.43;;;;;;;;;;4994275;28;20046;-46
2021/09/20 06:11:44;;;;;;;16.17;10.55;;;;;;;;;;4995428;28;20053;-44
2021/09/20 06:14:11;;;;;;;15.52;11.00;;;;;;;;;;4995368;28;20528;-43
2021/09/20 06:16:38;;;;;;;16.35;9.55;;;;;;;;;;5005893;28;20056;-44
2021/09/20 06:19:05;;;;;;;13.45;9.80;;;;;;;;;;5022933;28;20046;-43
2021/09/20 06:21:32;;;;;;;13.82;9.35;;;;;;;;;;5029350;28;20091;-44
2021/09/20 06:23:59;;;;;;;12.15;9.07;;;;;;;;;;5009853;28;20038;-43
2021/09/20 06:26:26;;;;;;;14.20;8.98;;;;;;;;;;5022098;28;20486;-43
2021/09/20 06:28:53;;;;;;;13.40;9.27;;;;;;;;;;5016436;28;20472;-46
2021/09/20 06:31:20;;;;;;;15.70;9.02;;;;;;;;;;5014023;28;20092;-47
2021/09/20 06:33:47;;;;;;;13.93;9.63;;;;;;;;;;5015866;28;20076;-46
2021/09/20 06:36:13;;;;;;;14.77;9.07;;;;;;;;;;5033970;28;20052;-45
2021/09/20 06:38:40;;;;;;;12.18;9.07;;;;;;;;;;5030837;28;20432;-49
2021/09/20 06:41:07;;;;;;;12.38;9.02;;;;;;;;;;5032552;28;20128;-47
2021/09/20 06:43:34;;;;;;;12.20;9.32;;;;;;;;;;5031816;28;20136;-46
2021/09/20 06:46:01;;;;;;;13.05;10.05;;;;;;;;;;5016622;28;20034;-45
2021/09/20 06:48:27;;;;;;;12.88;9.55;;;;;;;;;;5034622;28;20554;-45
2021/09/20 06:50:57;;;;;;;12.90;9.40;;;;;;;;;;5022418;28;20038;-46
2021/09/20 06:53:24;;;;;;;13.05;9.50;;;;;;;;;;5013749;28;20128;-44
2021/09/20 06:55:50;;;;;;;13.15;9.70;;;;;;;;;;5009211;28;20065;-45
2021/09/20 06:58:17;;;;;;;12.30;9.18;;;;;;;;;;5019535;28;20510;-45
2021/09/20 07:00:44;;;;;;;14.02;8.98;;;;;;;;;;5013846;28;20415;-46
2021/09/20 07:03:12;;;;;;;13.48;9.45;;;;;;;;;;5033115;28;20037;-46
2021/09/20 07:05:40;;;;;;;13.50;8.40;;;;;;;;;;5018606;28;20132;-43
2021/09/20 07:08:07;;;;;;;12.98;9.45;;;;;;;;;;5024276;28;20091;-46
2021/09/20 07:10:34;;;;;;;13.43;9.07;;;;;;;;;;5005494;28;20050;-46
2021/09/20 07:13:02;;;;;;;11.32;8.63;;;;;;;;;;5020244;28;20041;-43
2021/09/20 07:15:28;;;;;;;13.68;9.30;;;;;;;;;;5013583;28;20450;-45
2021/09/20 07:17:55;;;;;;;14.13;10.13;;;;;;;;;;4998988;28;20051;-45
2021/09/20 07:20:23;;;;;;;12.60;9.43;;;;;;;;;;5030324;28;20057;-44
2021/09/20 07:22:49;;;;;;;14.90;10.00;;;;;;;;;;5033378;28;20069;-43
2021/09/20 07:25:16;;;;;;;12.93;9.23;;;;;;;;;;5023843;28;20069;-44
2021/09/20 07:27:43;;;;;;;14.75;10.25;;;;;;;;;;5019620;28;20077;-45
2021/09/20 07:30:14;;;;;;;16.73;9.55;;;;;;;;;;5019492;28;20468;-44
2021/09/20 07:32:41;;;;;;;12.50;9.93;;;;;;;;;;5018763;28;20034;-43
2021/09/20 07:35:09;;;;;;;13.73;10.18;;;;;;;;;;5039149;23;20041;-46
2021/09/20 07:37:35;;;;;;;18.70;11.07;;;;;;;;;;5037679;28;20045;-47
2021/09/20 07:40:02;;;;;;;14.20;10.82;;;;;;;;;;5031862;28;20038;-48
2021/09/20 07:42:29;;;;;;;16.25;10.77;;;;;;;;;;5031825;28;20049;-46
2021/09/20 07:44:56;;;;;;;17.67;10.80;;;;;;;;;;5031017;28;20072;-45
2021/09/20 07:47:23;;;;;;;14.50;11.02;;;;;;;;;;5031668;28;20128;-46
2021/09/20 07:49:49;;;;;;;14.57;10.77;;;;;;;;;;5031583;28;20133;-45
2021/09/20 07:52:16;;;;;;;14.60;10.63;;;;;;;;;;5029815;28;20041;-47
2021/09/20 07:54:43;;;;;;;17.85;11.73;;;;;;;;;;5032421;28;20136;-48
2021/09/20 07:57:10;;;;;;;16.38;11.63;;;;;;;;;;5051108;28;20593;-47
2021/09/20 07:59:37;;;;;;;17.42;10.18;;;;;;;;;;5045150;28;20102;-46
2021/09/20 08:02:04;;;;;;;14.90;11.10;;;;;;;;;;5051458;28;20129;-47
2021/09/20 08:04:31;;;;;;;18.88;11.82;;;;;;;;;;5043972;28;20071;-48
2021/09/20 08:06:58;;;;;;;15.77;10.77;;;;;;;;;;5051211;28;20117;-51
2021/09/20 08:09:25;;;;;;;15.02;10.75;;;;;;;;;;5050946;28;20541;-46
2021/09/20 08:11:51;;;;;;;17.25;11.30;;;;;;;;;;5046165;28;20064;-49
2021/09/20 08:14:18;;;;;;;16.40;11.77;;;;;;;;;;5050487;28;20045;-46
2021/09/20 08:16:45;;;;;;;17.52;11.55;;;;;;;;;;5051227;28;20044;-45
2021/09/20 08:19:12;;;;;;;16.08;11.52;;;;;;;;;;5050517;28;20045;-45
2021/09/20 08:21:39;;;;;;;20.25;12.00;;;;;;;;;;5049852;28;20056;-44
2021/09/20 08:24:06;;;;;;;15.95;11.45;;;;;;;;;;5042245;28;20056;-51
2021/09/20 08:26:33;;;;;;;15.00;10.82;;;;;;;;;;5050804;28;20037;-43
2021/09/20 08:29:00;;;;;;;13.35;9.15;;;;;;;;;;5049639;28;20044;-45
2021/09/20 08:31:27;;;;;;;12.75;9.88;;;;;;;;;;5050943;28;20068;-45
2021/09/20 08:33:54;;;;;;;13.90;8.75;;;;;;;;;;5050052;28;20049;-44
2021/09/20 08:36:21;;;;;;;12.63;8.93;;;;;;;;;;5050712;28;20033;-42
2021/09/20 08:38:48;;;;;;;14.02;9.30;;;;;;;;;;5044396;28;20125;-46
2021/09/20 08:41:15;;;;;;;15.02;8.88;;;;;;;;;;5050483;28;20119;-46
2021/09/20 08:43:43;;;;;;;13.40;9.02;;;;;;;;;;5049725;28;20043;-49
2021/09/20 08:46:10;;;;;;;14.00;8.77;;;;;;;;;;5045682;28;20687;-50
2021/09/20 08:48:42;;;;;;;12.23;9.00;;;;;;;;;;5049585;28;20095;-46
2021/09/20 08:51:09;;;;;;;10.45;7.93;;;;;;;;;;5056518;28;20112;-45
2021/09/20 08:53:38;;;;;;;13.13;8.75;;;;;;;;;;5049637;28;20064;-45
2021/09/20 08:56:05;;;;;;;14.00;8.82;;;;;;;;;;5047961;28;20037;-51
2021/09/20 08:58:32;;;;;;;11.65;7.78;;;;;;;;;;5046345;28;20091;-46
2021/09/20 09:00:59;;;;;;;11.23;7.70;;;;;;;;;;5047621;28;20048;-47
2021/09/20 09:03:28;;;;;;;13.05;7.97;;;;;;;;;;5049679;28;20463;-45
2021/09/20 09:05:55;;;;;;;13.27;8.15;;;;;;;;;;5044167;28;20069;-46
2021/09/20 09:08:40;;;;;;;11.00;8.52;;;;;;;;;;5046393;28;20043;-48
2021/09/20 09:11:11;;;;;;;10.55;7.88;;;;;;;;;;5050696;28;20069;-46
2021/09/20 09:13:42;;;;;;;8.48;6.35;;;;;;;;;;5044164;28;20135;-44
2021/09/20 09:16:16;;;;;;;10.15;7.45;;;;;;;;;;5050204;28;20078;-46
2021/09/20 09:19:01;;;;;;;10.35;7.90;;;;;;;;;;5050006;28;20041;-43
2021/09/20 09:21:29;;;;;;;9.68;7.38;;;;;;;;;;5045082;28;20103;-48
2021/09/20 09:24:00;;;;;;;10.55;7.07;;;;;;;;;;5053061;28;20048;-46
2021/09/20 09:26:28;;;;;;;8.85;6.03;;;;;;;;;;5054016;28;20463;-46
2021/09/20 09:29:05;;;;;;;9.07;6.53;;;;;;;;;;5048570;28;20140;-47
2021/09/20 09:31:36;;;;;;;10.57;6.97;;;;;;;;;;5054068;28;20476;-46
2021/09/20 09:34:23;;;;;;;9.07;7.00;;;;;;;;;;5045627;28;20492;-49
2021/09/20 09:36:50;;;;;;;9.65;7.18;;;;;;;;;;5050189;28;20627;-44
2021/09/20 09:39:27;;;;;;;11.02;6.63;;;;;;;;;;5050881;28;20474;-44
2021/09/20 09:41:54;;;;;;;8.57;6.40;;;;;;;;;;5053685;28;20133;-49
2021/09/20 09:44:26;;;;;;;7.90;6.53;;;;;;;;;;5065429;28;20072;-46
2021/09/20 09:46:53;;;;;;;9.55;6.65;;;;;;;;;;5052921;28;20041;-46
2021/09/20 09:49:22;;;;;;;8.68;6.05;;;;;;;;;;5053560;28;20049;-48
2021/09/20 09:51:56;;;;;;;8.40;6.53;;;;;;;;;;5043521;28;20124;-45
2021/09/20 09:54:30;;;;;;;8.45;5.88;;;;;;;;;;5046505;28;20041;-45
2021/09/20 09:57:13;;;;;;;10.13;5.97;;;;;;;;;;5042412;28;20124;-45
2021/09/20 09:59:41;;;;;;;8.02;5.95;;;;;;;;;;5049022;28;20132;-46
2021/09/20 10:02:15;;;;;;;7.57;5.18;;;;;;;;;;5052993;28;20498;-45
2021/09/20 10:04:54;;;;;;;9.57;5.78;;;;;;;;;;5051847;28;20045;-45
2021/09/20 10:07:32;;;;;;;7.55;5.53;;;;;;;;;;5051734;28;20051;-44
2021/09/20 10:10:00;;;;;;;8.55;5.13;;;;;;;;;;5033805;28;20081;-45
2021/09/20 10:12:28;;;;;;;8.43;5.68;;;;;;;;;;5032226;28;20574;-45
2021/09/20 10:14:57;;;;;;;8.57;5.55;;;;;;;;;;5032799;28;20073;-45
2021/09/20 10:17:25;;;;;;;7.47;5.75;;;;;;;;;;5033531;28;20080;-44
2021/09/20 10:19:52;;;;;;;7.40;5.50;;;;;;;;;;5033690;28;20248;-45
2021/09/20 10:22:20;;;;;;;8.10;5.93;;;;;;;;;;5033512;28;20045;-44
2021/09/20 10:24:48;;;;;;;8.32;5.90;;;;;;;;;;5032661;28;20491;-42
2021/09/20 10:27:16;;;;;;;7.78;5.88;;;;;;;;;;5033139;28;20049;-41
2021/09/20 10:29:45;;;;;;;9.43;6.13;;;;;;;;;;5033771;28;20050;-42
2021/09/20 10:32:12;;;;;;;8.07;5.97;;;;;;;;;;5031971;28;20041;-42
2021/09/20 10:34:40;;;;;;;7.80;5.53;;;;;;;;;;5031665;28;20041;-45
2021/09/20 10:37:09;;;;;;;7.72;4.97;;;;;;;;;;5032741;28;20075;-43
2021/09/20 10:39:43;;;;;;;7.30;5.38;;;;;;;;;;5033408;28;20038;-42
2021/09/20 10:42:13;;;;;;;9.13;5.88;;;;;;;;;;5033362;28;20123;-42
2021/09/20 10:44:41;;;;;;;8.52;5.78;;;;;;;;;;5032486;28;20045;-43
2021/09/20 10:47:15;;;;;;;7.93;6.60;;;;;;;;;;5032784;28;20136;-42
2021/09/20 10:49:49;;;;;;;8.98;6.32;;;;;;;;;;5032105;28;20045;-42
2021/09/20 10:52:16;;;;;;;9.68;6.00;;;;;;;;;;5033161;28;20466;-42
2021/09/20 10:55:01;;;;;;;7.60;5.60;;;;;;;;;;5032023;28;20042;-43
2021/09/20 10:57:28;;;;;;;11.18;5.72;;;;;;;;;;5031612;28;20103;-42
2021/09/20 11:00:19;;;;;;;9.43;6.47;;;;;;;;;;5032491;28;20176;-44
2021/09/20 11:02:46;;;;;;;8.20;5.70;;;;;;;;;;5032671;28;20140;-42
2021/09/20 11:05:13;;;;;;;8.18;5.47;;;;;;;;;;5031832;28;20042;-45
2021/09/20 11:07:47;;;;;;;8.52;5.47;;;;;;;;;;5032401;28;20049;-44
2021/09/20 11:10:14;;;;;;;6.90;5.53;;;;;;;;;;5032906;28;20124;-43
2021/09/20 11:12:55;;;;;;;8.85;5.70;;;;;;;;;;5031405;28;20048;-45
2021/09/20 11:15:22;;;;;;;10.27;5.90;;;;;;;;;;5031956;28;20077;-46
2021/09/20 11:17:50;;;;;;;8.40;6.25;;;;;;;;;;5032152;28;20463;-42
2021/09/20 11:20:19;;;;;;;9.88;6.95;;;;;;;;;;5032146;28;20069;-42
2021/09/20 11:22:46;;;;;;;10.13;6.05;;;;;;;;;;5032751;28;20136;-42
2021/09/20 11:25:15;;;;;;;8.73;6.53;;;;;;;;;;5032589;28;20088;-43
2021/09/20 11:27:42;;;;;;;9.77;6.85;;;;;;;;;;5032545;28;20521;-42
2021/09/20 11:30:09;;;;;;;10.13;6.53;;;;;;;;;;5032327;28;20046;-43
2021/09/20 11:32:43;;;;;;;12.10;6.70;;;;;;;;;;5032115;28;20072;-46
2021/09/20 11:35:10;;;;;;;9.93;6.70;;;;;;;;;;5031056;28;20091;-42
2021/09/20 11:37:37;;;;;;;8.40;6.80;;;;;;;;;;5031824;28;20045;-41
2021/09/20 11:40:05;;;;;;;9.27;6.63;;;;;;;;;;5032004;28;20052;-43
2021/09/20 11:42:35;;;;;;;9.98;6.68;;;;;;;;;;5031803;28;20041;-43
2021/09/20 11:45:21;;;;;;;12.40;6.95;;;;;;;;;;5030408;28;20088;-44
2021/09/20 11:47:52;;;;;;;10.30;7.15;;;;;;;;;;5031965;28;20047;-42
2021/09/20 11:50:21;;;;;;;9.27;6.30;;;;;;;;;;5031764;28;20133;-44
2021/09/20 11:52:53;;;;;;;9.52;6.60;;;;;;;;;;5031499;28;20042;-43
2021/09/20 11:55:21;;;;;;;9.60;7.22;;;;;;;;;;5031088;28;20038;-43
2021/09/20 11:57:51;;;;;;;8.30;6.32;;;;;;;;;;5031754;28;20080;-43
2021/09/20 12:00:20;;;;;;;9.10;6.38;;;;;;;;;;5031564;28;20049;-45
2021/09/20 12:02:47;;;;;;;10.35;7.00;;;;;;;;;;5031537;28;20041;-44
2021/09/20 12:05:35;;;;;;;8.85;7.03;;;;;;;;;;5030844;28;20099;-44
2021/09/20 12:08:06;;;;;;;10.35;6.95;;;;;;;;;;5031228;28;20148;-44
2021/09/20 12:10:43;;;;;;;8.57;6.35;;;;;;;;;;5031487;28;20041;-42
2021/09/20 12:13:11;;;;;;;10.85;6.75;;;;;;;;;;5030798;28;20069;-47
2021/09/20 12:15:39;;;;;;;9.52;6.50;;;;;;;;;;5031352;28;20561;-44
2021/09/20 12:18:13;;;;;;;10.00;7.05;;;;;;;;;;5031572;28;20064;-43
2021/09/20 12:20:41;;;;;;;9.48;7.18;;;;;;;;;;5031585;28;20487;-47
2021/09/20 12:23:13;;;;;;;10.57;7.95;;;;;;;;;;5031214;28;20073;-47
2021/09/20 12:25:44;;;;;;;11.10;7.53;;;;;;;;;;5032876;28;20061;-44
2021/09/20 12:28:30;;;;;;;10.55;7.97;;;;;;;;;;5033430;28;21025;-42
2021/09/20 12:31:04;;;;;;;8.65;7.05;;;;;;;;;;5033626;28;20250;-43
2021/09/20 12:33:32;;;;;;;12.02;7.82;;;;;;;;;;5031158;28;20492;-43
2021/09/20 12:35:59;;;;;;;9.25;7.35;;;;;;;;;;5031001;28;20091;-42
2021/09/20 12:38:28;;;;;;;9.18;7.00;;;;;;;;;;5031215;28;20091;-42
2021/09/20 12:40:57;;;;;;;10.50;7.90;;;;;;;;;;5031323;28;20124;-42
2021/09/20 12:43:29;;;;;;;10.77;8.35;;;;;;;;;;5030492;28;20354;-43
2021/09/20 12:45:56;;;;;;;10.82;8.00;;;;;;;;;;5035060;28;20415;-43
2021/09/20 12:48:34;;;;;;;10.65;7.57;;;;;;;;;;5029695;28;20049;-42
2021/09/20 12:51:02;;;;;;;10.48;7.22;;;;;;;;;;5030990;28;20053;-41
2021/09/20 12:53:35;;;;;;;10.10;7.13;;;;;;;;;;5029929;28;20037;-42
2021/09/20 12:56:02;;;;;;;10.50;7.40;;;;;;;;;;5031207;28;20052;-42
2021/09/20 12:58:36;;;;;;;9.40;7.13;;;;;;;;;;5030672;28;20502;-45
2021/09/20 13:01:10;;;;;;;10.88;7.70;;;;;;;;;;5031482;28;20491;-47
2021/09/20 13:03:39;;;;;;;10.55;7.32;;;;;;;;;;5030825;28;20410;-45
2021/09/20 13:06:07;;;;;;;11.23;7.55;;;;;;;;;;5031428;28;20038;-42
2021/09/20 13:08:34;;;;;;;8.88;6.85;;;;;;;;;;5031423;28;20045;-43
2021/09/20 13:11:11;;;;;;;9.65;6.90;;;;;;;;;;5031497;28;20041;-43
2021/09/20 13:13:40;;;;;;;7.45;6.03;;;;;;;;;;5030336;28;20041;-43
2021/09/20 13:16:09;;;;;;;7.45;6.43;;;;;;;;;;5031540;28;20069;-42
2021/09/20 13:18:36;;;;;;;10.30;7.32;;;;;;;;;;5031259;28;20054;-48
2021/09/20 13:21:17;;;;;;;8.20;6.20;;;;;;;;;;5029574;28;20128;-42
2021/09/20 13:23:44;;;;;;;10.82;7.13;;;;;;;;;;5029764;28;20133;-47
2021/09/20 13:26:10;;;;;;;8.15;6.45;;;;;;;;;;5030670;28;20042;-46
2021/09/20 13:28:39;;;;;;;9.77;7.22;;;;;;;;;;5030578;28;20129;-43
2021/09/20 13:31:10;;;;;;;8.10;6.32;;;;;;;;;;5030547;28;20041;-43
2021/09/20 13:33:37;;;;;;;9.48;6.65;;;;;;;;;;5029467;28;20439;-43
2021/09/20 13:36:07;;;;;;;7.63;6.10;;;;;;;;;;5031050;28;20125;-43
2021/09/20 13:38:35;;;;;;;10.20;6.70;;;;;;;;;;5030426;28;20115;-45
2021/09/20 13:41:03;;;;;;;10.32;6.40;;;;;;;;;;5030586;28;20041;-48
2021/09/20 13:43:32;;;;;;;7.72;5.80;;;;;;;;;;5029933;28;20041;-46
2021/09/20 13:45:59;;;;;;;7.68;6.00;;;;;;;;;;5030234;28;20135;-46
2021/09/20 13:48:26;;;;;;;8.75;5.85;;;;;;;;;;5030502;28;20059;-42
2021/09/20 13:50:53;;;;;;;9.40;5.68;;;;;;;;;;5030212;28;20132;-44
2021/09/20 13:53:20;;;;;;;6.57;4.95;;;;;;;;;;5037464;28;20128;-46
2021/09/20 13:55:48;;;;;;;7.00;4.88;;;;;;;;;;5049601;28;20080;-46
2021/09/20 13:58:15;;;;;;;5.68;4.07;;;;;;;;;;5048323;28;20037;-48
2021/09/20 14:00:43;;;;;;;5.88;4.68;;;;;;;;;;5053211;28;20037;-47
2021/09/20 14:03:10;;;;;;;7.47;4.95;;;;;;;;;;5047624;28;20124;-47
2021/09/20 14:05:38;;;;;;;6.72;4.90;;;;;;;;;;5040377;28;20098;-47
2021/09/20 14:08:06;;;;;;;8.35;5.22;;;;;;;;;;5048578;28;20067;-47
2021/09/20 14:10:34;;;;;;;8.43;5.72;;;;;;;;;;5051599;28;20068;-48
2021/09/20 14:13:01;;;;;;;8.40;5.47;;;;;;;;;;5045400;28;20145;-47
2021/09/20 14:15:27;;;;;;;7.72;5.80;;;;;;;;;;5044869;28;20069;-47
2021/09/20 14:17:55;;;;;;;6.88;5.50;;;;;;;;;;5041145;28;20037;-47
2021/09/20 14:20:22;;;;;;;7.05;5.00;;;;;;;;;;5053368;28;20115;-47
2021/09/20 14:22:49;;;;;;;9.52;5.97;;;;;;;;;;5045920;28;20053;-45
2021/09/20 14:25:17;;;;;;;6.78;5.40;;;;;;;;;;5049234;28;20045;-45
2021/09/20 14:27:44;;;;;;;9.68;5.75;;;;;;;;;;5053848;28;20132;-49
2021/09/20 14:30:13;;;;;;;8.02;5.30;;;;;;;;;;5035990;28;20426;-47
2021/09/20 14:32:41;;;;;;;6.88;5.00;;;;;;;;;;5049835;28;20471;-47
2021/09/20 14:35:09;;;;;;;6.85;5.22;;;;;;;;;;5053005;28;20136;-48
2021/09/20 14:37:36;;;;;;;6.55;5.18;;;;;;;;;;5051343;28;20483;-47
2021/09/20 14:40:15;;;;;;;7.72;5.05;;;;;;;;;;5037148;28;20052;-47